createdAt,value
2023-03-11T00:00:17.924Z,1.07
2023-03-11T00:00:49.334Z,1.04
2023-03-11T00:01:20.737Z,1.24
2023-03-11T00:01:52.169Z,1.10
2023-03-11T00:02:23.679Z,0.88
2023-03-11T00:02:55.143Z,1.10
2023-03-11T00:03:26.531Z,1.06
2023-03-11T00:03:57.930Z,0.85
2023-03-11T00:04:29.346Z,1.29
2023-03-11T00:05:00.791Z,0.85
2023-03-11T00:05:32.292Z,1.47
2023-03-11T00:06:03.739Z,1.03
2023-03-11T00:06:35.150Z,1.00
2023-03-11T00:07:06.545Z,1.25
2023-03-11T00:07:37.955Z,1.21
2023-03-11T00:08:09.427Z,1.31
2023-03-11T00:08:40.840Z,1.04
2023-03-11T00:09:12.240Z,1.21
2023-03-11T00:09:43.655Z,0.86
2023-03-11T00:10:15.059Z,1.29
2023-03-11T00:10:46.484Z,1.16
2023-03-11T00:11:17.889Z,1.43
2023-03-11T00:11:49.302Z,1.34
2023-03-11T00:12:20.720Z,0.94
2023-03-11T00:12:52.148Z,0.92
2023-03-11T00:13:23.573Z,0.99
2023-03-11T00:13:54.982Z,1.04
2023-03-11T00:14:26.390Z,1.01
2023-03-11T00:14:57.782Z,1.22
2023-03-11T00:15:29.172Z,1.02
2023-03-11T00:16:00.578Z,1.18
2023-03-11T00:16:32.084Z,1.09
2023-03-11T00:17:03.542Z,1.24
2023-03-11T00:17:34.952Z,1.08
2023-03-11T00:18:06.351Z,0.74
2023-03-11T00:18:37.760Z,0.97
2023-03-11T00:19:09.215Z,1.05
2023-03-11T00:19:40.622Z,0.90
2023-03-11T00:20:12.029Z,1.04
2023-03-11T00:20:43.438Z,1.47
2023-03-11T00:21:14.830Z,1.10
2023-03-11T00:21:46.242Z,0.88
2023-03-11T00:22:17.664Z,1.24
2023-03-11T00:22:49.078Z,1.22
2023-03-11T00:23:20.490Z,0.97
2023-03-11T00:23:51.905Z,1.13
2023-03-11T00:24:23.299Z,1.08
2023-03-11T00:24:54.711Z,1.04
2023-03-11T00:25:26.132Z,1.17
2023-03-11T00:25:57.587Z,1.05
2023-03-11T00:26:28.974Z,0.86
2023-03-11T00:27:00.382Z,1.55
2023-03-11T00:27:31.802Z,1.16
2023-03-11T00:28:03.226Z,1.08
2023-03-11T00:28:34.662Z,1.24
2023-03-11T00:29:06.079Z,0.92
2023-03-11T00:29:37.489Z,0.83
2023-03-11T00:30:08.913Z,1.08
2023-03-11T00:30:40.374Z,0.99
2023-03-11T00:31:11.858Z,0.84
2023-03-11T00:31:43.282Z,1.03
2023-03-11T00:32:14.741Z,0.66
2023-03-11T00:32:46.173Z,1.19
2023-03-11T00:33:17.606Z,1.45
2023-03-11T00:33:49.061Z,0.96
2023-03-11T00:34:20.455Z,1.14
2023-03-11T00:34:51.845Z,0.81
2023-03-11T00:35:23.259Z,1.12
2023-03-11T00:35:54.698Z,0.96
2023-03-11T00:36:26.122Z,0.82
2023-03-11T00:36:57.538Z,0.99
2023-03-11T00:37:28.944Z,0.94
2023-03-11T00:38:00.343Z,1.22
2023-03-11T00:38:31.806Z,0.94
2023-03-11T00:39:03.341Z,1.06
2023-03-11T00:39:34.738Z,1.15
2023-03-11T00:40:06.146Z,1.04
2023-03-11T00:40:37.555Z,1.13
2023-03-11T00:41:08.958Z,0.79
2023-03-11T00:41:40.616Z,0.98
2023-03-11T00:42:12.074Z,0.75
2023-03-11T00:42:43.473Z,0.89
2023-03-11T00:43:14.865Z,1.39
2023-03-11T00:43:46.271Z,0.95
2023-03-11T00:44:17.711Z,1.05
2023-03-11T00:44:49.128Z,0.92
2023-03-11T00:45:20.546Z,0.88
2023-03-11T00:45:51.964Z,0.85
2023-03-11T00:46:23.497Z,0.97
2023-03-11T00:46:54.942Z,0.94
2023-03-11T00:47:26.353Z,1.00
2023-03-11T00:47:57.749Z,0.78
2023-03-11T00:48:29.150Z,0.67
2023-03-11T00:49:00.558Z,0.87
2023-03-11T00:49:31.992Z,0.90
2023-03-11T00:50:03.406Z,1.12
2023-03-11T00:50:34.825Z,1.12
2023-03-11T00:51:06.254Z,0.98
2023-03-11T00:51:37.662Z,0.89
2023-03-11T00:52:09.068Z,0.83
2023-03-11T00:52:40.491Z,0.83
2023-03-11T00:53:11.906Z,0.96
2023-03-11T00:53:43.310Z,0.98
2023-03-11T00:54:14.713Z,0.94
2023-03-11T00:54:46.168Z,0.84
2023-03-11T00:55:17.571Z,1.10
2023-03-11T00:55:48.995Z,0.81
2023-03-11T00:56:20.422Z,1.32
2023-03-11T00:56:51.810Z,1.08
2023-03-11T00:57:23.202Z,1.24
2023-03-11T00:57:54.603Z,1.08
2023-03-11T00:58:26.015Z,0.85
2023-03-11T00:58:57.427Z,0.89
2023-03-11T00:59:28.823Z,0.94
2023-03-11T01:00:00.287Z,0.98
2023-03-11T01:00:31.691Z,0.92
2023-03-11T01:01:03.110Z,1.11
2023-03-11T01:01:34.545Z,0.83
2023-03-11T01:02:05.986Z,0.87
2023-03-11T01:02:37.398Z,0.95
2023-03-11T01:03:08.848Z,0.90
2023-03-11T01:03:40.242Z,1.07
2023-03-11T01:04:11.674Z,0.80
2023-03-11T01:04:43.150Z,1.11
2023-03-11T01:05:14.616Z,0.99
2023-03-11T01:05:46.041Z,1.06
2023-03-11T01:06:17.455Z,0.91
2023-03-11T01:06:48.865Z,0.94
2023-03-11T01:07:20.271Z,0.78
2023-03-11T01:07:51.683Z,1.12
2023-03-11T01:08:23.079Z,0.92
2023-03-11T01:08:54.478Z,0.90
2023-03-11T01:09:25.881Z,1.13
2023-03-11T01:09:57.291Z,0.90
2023-03-11T01:10:28.699Z,0.74
2023-03-11T01:11:00.119Z,0.92
2023-03-11T01:11:31.512Z,0.82
2023-03-11T01:12:02.904Z,1.10
2023-03-11T01:12:34.331Z,0.86
2023-03-11T01:13:05.760Z,0.91
2023-03-11T01:13:37.170Z,1.07
2023-03-11T01:14:08.608Z,0.92
2023-03-11T01:14:39.997Z,1.08
2023-03-11T01:15:11.428Z,0.83
2023-03-11T01:15:42.847Z,0.70
2023-03-11T01:16:14.338Z,1.03
2023-03-11T01:16:45.785Z,0.98
2023-03-11T01:17:17.190Z,0.95
2023-03-11T01:17:48.625Z,1.08
2023-03-11T01:18:20.063Z,1.08
2023-03-11T01:18:51.449Z,0.82
2023-03-11T01:19:22.850Z,0.93
2023-03-11T01:19:54.267Z,0.95
2023-03-11T01:20:25.714Z,0.80
2023-03-11T01:20:57.122Z,0.87
2023-03-11T01:21:28.529Z,0.71
2023-03-11T01:21:59.939Z,0.92
2023-03-11T01:22:31.343Z,0.78
2023-03-11T01:23:02.751Z,0.97
2023-03-11T01:23:34.164Z,1.06
2023-03-11T01:24:05.576Z,0.99
2023-03-11T01:24:36.975Z,1.05
2023-03-11T01:25:08.365Z,1.17
2023-03-11T01:25:39.820Z,0.89
2023-03-11T01:26:11.229Z,0.85
2023-03-11T01:26:42.620Z,0.82
2023-03-11T01:27:14.049Z,0.94
2023-03-11T01:27:45.477Z,0.81
2023-03-11T01:28:16.875Z,0.84
2023-03-11T01:28:48.288Z,0.88
2023-03-11T01:29:19.677Z,0.96
2023-03-11T01:29:51.073Z,0.80
2023-03-11T01:30:22.474Z,0.79
2023-03-11T01:30:53.944Z,1.07
2023-03-11T01:31:25.374Z,0.96
2023-03-11T01:31:56.802Z,0.92
2023-03-11T01:32:28.242Z,1.07
2023-03-11T01:32:59.716Z,1.01
2023-03-11T01:33:31.118Z,0.76
2023-03-11T01:34:02.559Z,0.70
2023-03-11T01:34:33.992Z,0.80
2023-03-11T01:35:05.400Z,0.82
2023-03-11T01:35:36.858Z,0.76
2023-03-11T01:36:08.355Z,1.00
2023-03-11T01:36:39.774Z,1.05
2023-03-11T01:37:11.180Z,1.08
2023-03-11T01:37:42.590Z,0.90
2023-03-11T01:38:13.986Z,0.97
2023-03-11T01:38:45.374Z,0.92
2023-03-11T01:39:16.767Z,0.79
2023-03-11T01:39:48.174Z,0.91
2023-03-11T01:40:19.588Z,1.03
2023-03-11T01:40:51.020Z,0.75
2023-03-11T01:41:22.532Z,1.12
2023-03-11T01:41:53.934Z,0.84
2023-03-11T01:42:25.334Z,0.79
2023-03-11T01:42:56.745Z,0.81
2023-03-11T01:43:28.140Z,0.92
2023-03-11T01:43:59.525Z,0.82
2023-03-11T01:44:30.934Z,0.83
2023-03-11T01:45:02.331Z,0.74
2023-03-11T01:45:33.754Z,0.79
2023-03-11T01:46:05.214Z,1.06
2023-03-11T01:46:36.675Z,0.75
2023-03-11T01:47:08.124Z,0.67
2023-03-11T01:47:39.545Z,1.00
2023-03-11T01:48:10.952Z,1.08
2023-03-11T01:48:42.354Z,1.16
2023-03-11T01:49:13.769Z,0.95
2023-03-11T01:49:45.166Z,0.95
2023-03-11T01:50:16.565Z,1.08
2023-03-11T01:50:47.956Z,0.79
2023-03-11T01:51:19.437Z,0.75
2023-03-11T01:51:50.822Z,0.69
2023-03-11T01:52:22.332Z,0.86
2023-03-11T01:52:53.746Z,0.90
2023-03-11T01:53:25.159Z,0.94
2023-03-11T01:53:56.578Z,0.91
2023-03-11T01:54:28.000Z,1.10
2023-03-11T01:54:59.411Z,0.84
2023-03-11T01:55:30.811Z,0.95
2023-03-11T01:56:02.221Z,0.88
2023-03-11T01:56:33.685Z,0.78
2023-03-11T01:57:05.102Z,1.03
2023-03-11T01:57:36.502Z,1.20
2023-03-11T01:58:07.910Z,0.99
2023-03-11T01:58:39.314Z,0.80
2023-03-11T01:59:10.712Z,0.90
2023-03-11T01:59:42.109Z,1.06
2023-03-11T02:00:13.515Z,0.74
2023-03-11T02:00:44.918Z,0.98
2023-03-11T02:01:16.353Z,0.90
2023-03-11T02:01:47.824Z,1.01
2023-03-11T02:02:19.264Z,1.00
2023-03-11T02:02:50.735Z,0.69
2023-03-11T02:03:22.180Z,0.75
2023-03-11T02:03:53.569Z,0.82
2023-03-11T02:04:24.963Z,0.65
2023-03-11T02:04:56.361Z,0.97
2023-03-11T02:05:27.757Z,1.05
2023-03-11T02:05:59.172Z,0.89
2023-03-11T02:06:30.600Z,1.17
2023-03-11T02:07:02.041Z,1.01
2023-03-11T02:07:33.436Z,0.97
2023-03-11T02:08:04.840Z,0.74
2023-03-11T02:08:36.247Z,0.88
2023-03-11T02:09:07.641Z,0.73
2023-03-11T02:09:39.037Z,0.84
2023-03-11T02:10:10.459Z,0.93
2023-03-11T02:10:41.909Z,0.70
2023-03-11T02:11:13.382Z,0.90
2023-03-11T02:11:44.862Z,0.71
2023-03-11T02:12:16.273Z,0.87
2023-03-11T02:12:47.659Z,0.94
2023-03-11T02:13:19.183Z,0.86
2023-03-11T02:13:50.628Z,0.81
2023-03-11T02:14:22.014Z,1.07
2023-03-11T02:14:53.410Z,0.90
2023-03-11T02:15:24.823Z,0.73
2023-03-11T02:15:56.298Z,0.83
2023-03-11T02:16:27.886Z,0.93
2023-03-11T02:16:59.326Z,0.74
2023-03-11T02:17:30.760Z,0.83
2023-03-11T02:18:02.180Z,1.04
2023-03-11T02:18:33.580Z,0.87
2023-03-11T02:19:05.004Z,0.97
2023-03-11T02:19:36.439Z,0.72
2023-03-11T02:20:07.855Z,1.07
2023-03-11T02:20:39.257Z,1.19
2023-03-11T02:21:10.679Z,0.75
2023-03-11T02:21:42.076Z,1.00
2023-03-11T02:22:13.491Z,1.03
2023-03-11T02:22:44.941Z,0.66
2023-03-11T02:23:16.476Z,0.83
2023-03-11T02:23:47.945Z,0.76
2023-03-11T02:24:19.400Z,0.68
2023-03-11T02:24:50.835Z,0.54
2023-03-11T02:25:22.255Z,0.96
2023-03-11T02:25:53.742Z,1.09
2023-03-11T02:26:25.169Z,0.97
2023-03-11T02:26:56.611Z,0.69
2023-03-11T02:27:28.009Z,0.98
2023-03-11T02:27:59.447Z,0.74
2023-03-11T02:28:30.871Z,0.84
2023-03-11T02:29:02.287Z,0.98
2023-03-11T02:29:33.703Z,1.10
2023-03-11T02:30:05.113Z,0.87
2023-03-11T02:30:36.520Z,0.83
2023-03-11T02:31:08.035Z,1.06
2023-03-11T02:31:41.160Z,1.04
2023-03-11T02:32:14.289Z,0.91
2023-03-11T02:32:45.767Z,1.05
2023-03-11T02:33:17.239Z,0.99
2023-03-11T02:33:48.859Z,0.70
2023-03-11T02:34:20.337Z,0.98
2023-03-11T02:34:51.746Z,0.83
2023-03-11T02:35:23.179Z,0.71
2023-03-11T02:35:54.615Z,0.83
2023-03-11T02:36:26.027Z,0.90
2023-03-11T02:36:57.492Z,1.12
2023-03-11T02:37:28.898Z,1.03
2023-03-11T02:38:00.320Z,0.93
2023-03-11T02:38:31.722Z,0.78
2023-03-11T02:39:03.115Z,0.76
2023-03-11T02:39:34.529Z,0.90
2023-03-11T02:40:05.946Z,1.01
2023-03-11T02:40:37.350Z,0.60
2023-03-11T02:41:08.787Z,0.71
2023-03-11T02:41:40.218Z,0.95
2023-03-11T02:42:11.638Z,0.69
2023-03-11T02:42:43.028Z,0.76
2023-03-11T02:43:14.444Z,0.73
2023-03-11T02:43:45.885Z,0.71
2023-03-11T02:44:17.297Z,0.72
2023-03-11T02:44:48.698Z,0.75
2023-03-11T02:45:20.115Z,0.59
2023-03-11T02:45:51.531Z,0.67
2023-03-11T02:46:22.951Z,0.75
2023-03-11T02:46:54.558Z,0.72
2023-03-11T02:47:26.044Z,1.33
2023-03-11T02:47:57.466Z,0.88
2023-03-11T02:48:28.871Z,0.71
2023-03-11T02:49:00.290Z,0.64
2023-03-11T02:49:31.701Z,0.78
2023-03-11T02:50:03.130Z,0.77
2023-03-11T02:50:34.521Z,0.93
2023-03-11T02:51:05.929Z,1.08
2023-03-11T02:51:37.316Z,0.94
2023-03-11T02:52:08.725Z,1.07
2023-03-11T02:52:40.143Z,0.70
2023-03-11T02:53:11.527Z,0.84
2023-03-11T02:53:42.923Z,0.59
2023-03-11T02:54:14.367Z,0.66
2023-03-11T02:54:45.773Z,0.85
2023-03-11T02:55:17.206Z,0.74
2023-03-11T02:55:48.602Z,0.67
2023-03-11T02:56:20.018Z,0.69
2023-03-11T02:56:51.438Z,0.82
2023-03-11T02:57:22.857Z,0.97
2023-03-11T02:57:54.265Z,0.46
2023-03-11T02:58:25.659Z,0.72
2023-03-11T02:58:57.072Z,1.01
2023-03-11T02:59:28.686Z,1.09
2023-03-11T03:00:00.179Z,0.84
2023-03-11T03:00:31.696Z,1.06
2023-03-11T03:01:03.176Z,0.82
2023-03-11T03:01:34.596Z,0.75
2023-03-11T03:02:06.073Z,0.77
2023-03-11T03:02:37.472Z,0.86
2023-03-11T03:03:08.871Z,0.88
2023-03-11T03:03:40.277Z,0.69
2023-03-11T03:04:11.729Z,0.84
2023-03-11T03:04:43.160Z,0.92
2023-03-11T03:05:14.555Z,0.76
2023-03-11T03:05:45.978Z,0.57
2023-03-11T03:06:17.373Z,0.68
2023-03-11T03:06:48.770Z,0.67
2023-03-11T03:07:20.193Z,0.68
2023-03-11T03:07:51.601Z,0.65
2023-03-11T03:08:22.998Z,0.74
2023-03-11T03:08:54.406Z,0.63
2023-03-11T03:09:25.798Z,0.83
2023-03-11T03:09:57.218Z,0.80
2023-03-11T03:10:28.612Z,0.95
2023-03-11T03:11:00.042Z,0.75
2023-03-11T03:11:31.455Z,1.08
2023-03-11T03:12:02.845Z,0.84
2023-03-11T03:12:34.253Z,0.97
2023-03-11T03:13:05.673Z,0.91
2023-03-11T03:13:37.091Z,0.99
2023-03-11T03:14:08.489Z,0.72
2023-03-11T03:14:39.934Z,0.82
2023-03-11T03:15:11.359Z,0.74
2023-03-11T03:15:42.767Z,0.79
2023-03-11T03:16:14.220Z,0.57
2023-03-11T03:16:45.806Z,0.86
2023-03-11T03:17:17.375Z,0.73
2023-03-11T03:17:48.826Z,0.90
2023-03-11T03:18:20.233Z,0.97
2023-03-11T03:18:51.618Z,0.89
2023-03-11T03:19:23.034Z,0.77
2023-03-11T03:19:54.432Z,0.48
2023-03-11T03:20:25.829Z,0.45
2023-03-11T03:20:57.259Z,0.83
2023-03-11T03:21:28.706Z,0.76
2023-03-11T03:22:00.115Z,0.73
2023-03-11T03:22:31.501Z,0.69
2023-03-11T03:23:02.912Z,0.51
2023-03-11T03:23:34.312Z,0.78
2023-03-11T03:24:05.725Z,0.75
2023-03-11T03:24:37.139Z,0.76
2023-03-11T03:25:08.542Z,0.54
2023-03-11T03:25:39.944Z,0.42
2023-03-11T03:26:11.330Z,0.50
2023-03-11T03:26:42.758Z,0.76
2023-03-11T03:27:14.173Z,0.78
2023-03-11T03:27:45.586Z,0.66
2023-03-11T03:28:16.995Z,0.63
2023-03-11T03:28:48.413Z,0.93
2023-03-11T03:29:19.840Z,1.01
2023-03-11T03:29:51.250Z,0.90
2023-03-11T03:30:22.652Z,0.83
2023-03-11T03:30:54.044Z,0.71
2023-03-11T03:31:25.476Z,0.82
2023-03-11T03:31:56.991Z,0.76
2023-03-11T03:32:28.442Z,0.45
2023-03-11T03:32:59.856Z,0.61
2023-03-11T03:33:31.279Z,0.69
2023-03-11T03:34:02.694Z,0.72
2023-03-11T03:34:34.108Z,0.78
2023-03-11T03:35:05.529Z,0.86
2023-03-11T03:35:36.995Z,0.72
2023-03-11T03:36:08.433Z,0.77
2023-03-11T03:36:39.861Z,0.67
2023-03-11T03:37:11.297Z,0.61
2023-03-11T03:37:42.702Z,0.76
2023-03-11T03:38:14.112Z,0.76
2023-03-11T03:38:45.555Z,0.76
2023-03-11T03:39:16.948Z,0.76
2023-03-11T03:39:48.350Z,1.11
2023-03-11T03:40:19.755Z,0.68
2023-03-11T03:40:51.162Z,0.72
2023-03-11T03:41:22.554Z,0.64
2023-03-11T03:41:53.943Z,1.13
2023-03-11T03:42:25.401Z,0.89
2023-03-11T03:42:56.849Z,0.48
2023-03-11T03:43:28.242Z,0.89
2023-03-11T03:43:59.665Z,0.90
2023-03-11T03:44:31.096Z,0.67
2023-03-11T03:45:02.497Z,0.50
2023-03-11T03:45:33.922Z,0.63
2023-03-11T03:46:05.432Z,0.60
2023-03-11T03:46:36.834Z,0.60
2023-03-11T03:47:08.227Z,0.56
2023-03-11T03:47:39.698Z,0.90
2023-03-11T03:48:11.088Z,0.68
2023-03-11T03:48:42.484Z,0.55
2023-03-11T03:49:13.911Z,0.73
2023-03-11T03:49:45.325Z,0.63
2023-03-11T03:50:16.736Z,0.48
2023-03-11T03:50:48.151Z,0.61
2023-03-11T03:51:19.576Z,0.75
2023-03-11T03:51:50.995Z,0.84
2023-03-11T03:52:22.411Z,0.63
2023-03-11T03:52:53.833Z,0.84
2023-03-11T03:53:25.221Z,0.68
2023-03-11T03:53:56.628Z,0.93
2023-03-11T03:54:28.032Z,0.99
2023-03-11T03:54:59.423Z,0.79
2023-03-11T03:55:30.815Z,0.77
2023-03-11T03:56:02.324Z,0.79
2023-03-11T03:56:33.731Z,0.81
2023-03-11T03:57:05.130Z,0.76
2023-03-11T03:57:36.547Z,0.68
2023-03-11T03:58:08.000Z,0.64
2023-03-11T03:58:39.417Z,0.63
2023-03-11T03:59:10.830Z,0.94
2023-03-11T03:59:42.234Z,0.70
2023-03-11T04:00:13.642Z,0.71
2023-03-11T04:00:45.040Z,0.76
2023-03-11T04:01:16.458Z,0.87
2023-03-11T04:01:47.876Z,0.77
2023-03-11T04:02:19.354Z,0.77
2023-03-11T04:02:50.760Z,0.67
2023-03-11T04:03:22.258Z,0.56
2023-03-11T04:03:53.674Z,0.87
2023-03-11T04:04:25.078Z,0.97
2023-03-11T04:04:56.462Z,0.83
2023-03-11T04:05:27.874Z,0.77
2023-03-11T04:05:59.267Z,1.00
2023-03-11T04:06:30.704Z,0.81
2023-03-11T04:07:02.095Z,0.80
2023-03-11T04:07:33.509Z,0.96
2023-03-11T04:08:04.925Z,0.75
2023-03-11T04:08:36.405Z,0.43
2023-03-11T04:09:07.809Z,0.48
2023-03-11T04:09:39.221Z,0.60
2023-03-11T04:10:10.612Z,0.58
2023-03-11T04:10:42.003Z,0.71
2023-03-11T04:11:13.415Z,0.57
2023-03-11T04:11:44.867Z,0.59
2023-03-11T04:12:16.285Z,0.50
2023-03-11T04:12:47.678Z,0.67
2023-03-11T04:13:19.108Z,0.57
2023-03-11T04:13:50.578Z,0.82
2023-03-11T04:14:21.981Z,0.92
2023-03-11T04:14:53.416Z,0.74
2023-03-11T04:15:24.831Z,0.79
2023-03-11T04:15:56.248Z,0.92
2023-03-11T04:16:27.701Z,0.71
2023-03-11T04:16:59.231Z,0.93
2023-03-11T04:17:30.667Z,0.61
2023-03-11T04:18:02.092Z,0.72
2023-03-11T04:18:33.513Z,0.56
2023-03-11T04:19:04.912Z,0.77
2023-03-11T04:19:36.314Z,0.59
2023-03-11T04:20:07.736Z,0.46
2023-03-11T04:20:39.149Z,0.54
2023-03-11T04:21:10.560Z,0.60
2023-03-11T04:21:41.972Z,0.62
2023-03-11T04:22:13.474Z,0.85
2023-03-11T04:22:44.897Z,0.79
2023-03-11T04:23:16.311Z,0.58
2023-03-11T04:23:47.734Z,0.82
2023-03-11T04:24:19.129Z,0.59
2023-03-11T04:24:50.563Z,0.68
2023-03-11T04:25:22.006Z,0.72
2023-03-11T04:25:53.429Z,0.44
2023-03-11T04:26:24.836Z,0.47
2023-03-11T04:26:56.247Z,1.00
2023-03-11T04:27:27.705Z,0.76
2023-03-11T04:27:59.109Z,0.70
2023-03-11T04:28:30.508Z,0.65
2023-03-11T04:29:01.903Z,0.57
2023-03-11T04:29:33.290Z,0.63
2023-03-11T04:30:04.710Z,0.46
2023-03-11T04:30:36.174Z,0.66
2023-03-11T04:31:07.636Z,0.74
2023-03-11T04:31:39.092Z,0.59
2023-03-11T04:32:10.498Z,0.43
2023-03-11T04:32:41.933Z,0.91
2023-03-11T04:33:13.360Z,0.51
2023-03-11T04:33:44.751Z,0.87
2023-03-11T04:34:16.171Z,0.73
2023-03-11T04:34:47.570Z,0.63
2023-03-11T04:35:18.992Z,0.65
2023-03-11T04:35:50.449Z,0.71
2023-03-11T04:36:21.892Z,0.52
2023-03-11T04:36:53.283Z,0.77
2023-03-11T04:37:24.699Z,0.70
2023-03-11T04:37:56.124Z,0.63
2023-03-11T04:38:27.513Z,0.67
2023-03-11T04:38:58.917Z,0.52
2023-03-11T04:39:30.337Z,0.39
2023-03-11T04:40:01.726Z,0.76
2023-03-11T04:40:33.153Z,0.65
2023-03-11T04:41:04.583Z,0.60
2023-03-11T04:41:36.032Z,0.81
2023-03-11T04:42:07.440Z,0.48
2023-03-11T04:42:38.835Z,0.72
2023-03-11T04:43:10.279Z,0.79
2023-03-11T04:43:41.678Z,0.67
2023-03-11T04:44:13.097Z,0.72
2023-03-11T04:44:44.507Z,0.99
2023-03-11T04:45:15.939Z,0.80
2023-03-11T04:45:47.462Z,0.71
2023-03-11T04:46:18.941Z,0.71
2023-03-11T04:46:50.391Z,0.80
2023-03-11T04:47:21.813Z,0.59
2023-03-11T04:47:53.234Z,0.69
2023-03-11T04:48:24.666Z,0.66
2023-03-11T04:48:56.071Z,0.55
2023-03-11T04:49:27.462Z,0.47
2023-03-11T04:49:58.885Z,0.54
2023-03-11T04:50:30.281Z,0.46
2023-03-11T04:51:01.712Z,0.58
2023-03-11T04:51:33.104Z,0.57
2023-03-11T04:52:04.515Z,0.60
2023-03-11T04:52:35.939Z,0.61
2023-03-11T04:53:07.368Z,0.62
2023-03-11T04:53:38.763Z,0.58
2023-03-11T04:54:10.170Z,0.53
2023-03-11T04:54:41.576Z,0.41
2023-03-11T04:55:12.967Z,0.46
2023-03-11T04:55:44.384Z,0.48
2023-03-11T04:56:15.807Z,0.56
2023-03-11T04:56:47.210Z,0.44
2023-03-11T04:57:18.604Z,0.59
2023-03-11T04:57:49.998Z,0.66
2023-03-11T04:58:21.423Z,0.52
2023-03-11T04:58:52.823Z,0.57
2023-03-11T04:59:24.383Z,0.36
2023-03-11T04:59:55.800Z,0.48
2023-03-11T05:00:27.228Z,0.52
2023-03-11T05:00:58.658Z,0.51
2023-03-11T05:01:30.252Z,0.52
2023-03-11T05:02:01.746Z,0.59
2023-03-11T05:02:33.146Z,0.52
2023-03-11T05:03:04.607Z,0.44
2023-03-11T05:03:36.064Z,0.61
2023-03-11T05:04:07.457Z,0.68
2023-03-11T05:04:38.959Z,0.84
2023-03-11T05:05:10.371Z,0.74
2023-03-11T05:05:41.808Z,0.55
2023-03-11T05:06:13.208Z,0.55
2023-03-11T05:06:44.667Z,0.48
2023-03-11T05:07:16.088Z,0.59
2023-03-11T05:07:47.489Z,0.54
2023-03-11T05:08:18.907Z,0.72
2023-03-11T05:08:50.302Z,0.80
2023-03-11T05:09:21.719Z,0.54
2023-03-11T05:09:53.129Z,0.43
2023-03-11T05:10:24.535Z,0.58
2023-03-11T05:10:55.927Z,0.37
2023-03-11T05:11:27.318Z,0.54
2023-03-11T05:11:58.766Z,1.12
2023-03-11T05:12:30.176Z,0.61
2023-03-11T05:13:01.595Z,0.55
2023-03-11T05:13:33.001Z,0.52
2023-03-11T05:14:04.398Z,0.48
2023-03-11T05:14:35.805Z,0.24
2023-03-11T05:15:07.195Z,0.58
2023-03-11T05:15:38.647Z,0.41
2023-03-11T05:16:10.160Z,0.65
2023-03-11T05:16:41.611Z,0.49
2023-03-11T05:17:13.016Z,0.62
2023-03-11T05:17:44.421Z,0.76
2023-03-11T05:18:15.872Z,0.54
2023-03-11T05:18:47.289Z,0.36
2023-03-11T05:19:18.684Z,0.61
2023-03-11T05:19:50.095Z,0.66
2023-03-11T05:20:21.498Z,0.46
2023-03-11T05:20:52.909Z,0.48
2023-03-11T05:21:24.322Z,0.66
2023-03-11T05:21:55.759Z,0.58
2023-03-11T05:22:27.170Z,0.79
2023-03-11T05:22:58.587Z,0.70
2023-03-11T05:23:30.015Z,0.44
2023-03-11T05:24:01.423Z,0.53
2023-03-11T05:24:32.846Z,0.46
2023-03-11T05:25:04.243Z,0.58
2023-03-11T05:25:35.665Z,0.50
2023-03-11T05:26:07.108Z,0.62
2023-03-11T05:26:38.527Z,1.01
2023-03-11T05:27:09.915Z,0.65
2023-03-11T05:27:41.332Z,0.42
2023-03-11T05:28:12.755Z,0.44
2023-03-11T05:28:44.174Z,0.66
2023-03-11T05:29:15.570Z,0.79
2023-03-11T05:29:47.006Z,0.48
2023-03-11T05:30:18.401Z,0.52
2023-03-11T05:30:49.842Z,0.51
2023-03-11T05:31:21.309Z,0.53
2023-03-11T05:31:52.716Z,0.53
2023-03-11T05:32:24.203Z,0.53
2023-03-11T05:32:55.683Z,0.54
2023-03-11T05:33:27.125Z,0.54
2023-03-11T05:33:58.518Z,0.49
2023-03-11T05:34:29.916Z,0.52
2023-03-11T05:35:01.328Z,0.50
2023-03-11T05:35:32.756Z,0.50
2023-03-11T05:36:04.286Z,0.47
2023-03-11T05:36:35.704Z,0.38
2023-03-11T05:37:07.101Z,0.24
2023-03-11T05:37:38.575Z,0.31
2023-03-11T05:38:09.983Z,0.61
2023-03-11T05:38:41.394Z,0.42
2023-03-11T05:39:12.809Z,0.48
2023-03-11T05:39:44.218Z,0.55
2023-03-11T05:40:15.626Z,0.84
2023-03-11T05:40:47.021Z,0.55
2023-03-11T05:41:18.425Z,0.64
2023-03-11T05:41:49.827Z,0.39
2023-03-11T05:42:21.620Z,0.35
2023-03-11T05:42:53.104Z,0.49
2023-03-11T05:43:24.514Z,0.35
2023-03-11T05:43:55.953Z,0.49
2023-03-11T05:44:27.476Z,0.44
2023-03-11T05:44:58.906Z,0.61
2023-03-11T05:45:30.320Z,0.47
2023-03-11T05:46:01.720Z,0.37
2023-03-11T05:46:33.220Z,0.34
2023-03-11T05:47:04.726Z,0.52
2023-03-11T05:47:36.131Z,0.85
2023-03-11T05:48:07.562Z,0.73
2023-03-11T05:48:38.976Z,0.61
2023-03-11T05:49:10.390Z,0.57
2023-03-11T05:49:41.794Z,0.35
2023-03-11T05:50:13.185Z,0.51
2023-03-11T05:50:44.574Z,0.82
2023-03-11T05:51:15.977Z,0.47
2023-03-11T05:51:47.381Z,0.36
2023-03-11T05:52:18.769Z,0.49
2023-03-11T05:52:50.174Z,0.60
2023-03-11T05:53:21.613Z,0.47
2023-03-11T05:53:53.016Z,0.73
2023-03-11T05:54:24.444Z,0.57
2023-03-11T05:54:55.837Z,0.35
2023-03-11T05:55:27.230Z,0.46
2023-03-11T05:55:58.668Z,0.64
2023-03-11T05:56:30.116Z,0.49
2023-03-11T05:57:01.544Z,0.78
2023-03-11T05:57:32.954Z,0.62
2023-03-11T05:58:04.417Z,0.59
2023-03-11T05:58:35.899Z,0.63
2023-03-11T05:59:07.290Z,0.72
2023-03-11T05:59:38.709Z,0.60
2023-03-11T06:00:10.115Z,0.41
2023-03-11T06:00:41.524Z,0.56
2023-03-11T06:01:12.953Z,0.53
2023-03-11T06:01:44.364Z,0.47
2023-03-11T06:02:15.778Z,0.56
2023-03-11T06:02:47.166Z,0.76
2023-03-11T06:03:18.579Z,0.56
2023-03-11T06:03:50.098Z,0.58
2023-03-11T06:04:21.634Z,0.67
2023-03-11T06:04:53.223Z,0.66
2023-03-11T06:05:24.860Z,0.43
2023-03-11T06:05:56.330Z,0.47
2023-03-11T06:06:27.758Z,0.67
2023-03-11T06:06:59.176Z,0.44
2023-03-11T06:07:30.613Z,0.66
2023-03-11T06:08:02.016Z,0.47
2023-03-11T06:08:33.407Z,0.62
2023-03-11T06:09:04.836Z,0.49
2023-03-11T06:09:36.251Z,0.40
2023-03-11T06:10:07.664Z,0.35
2023-03-11T06:10:39.069Z,0.38
2023-03-11T06:11:10.550Z,0.64
2023-03-11T06:11:41.963Z,0.59
2023-03-11T06:12:13.370Z,0.73
2023-03-11T06:12:44.780Z,0.54
2023-03-11T06:13:16.509Z,0.46
2023-03-11T06:13:48.002Z,0.37
2023-03-11T06:14:19.423Z,0.23
2023-03-11T06:14:50.809Z,0.38
2023-03-11T06:15:22.295Z,0.39
2023-03-11T06:15:53.730Z,0.57
2023-03-11T06:16:25.182Z,0.45
2023-03-11T06:16:56.652Z,0.56
2023-03-11T06:17:30.303Z,0.58
2023-03-11T06:18:01.910Z,0.59
2023-03-11T06:18:33.372Z,0.44
2023-03-11T06:19:04.792Z,0.52
2023-03-11T06:19:36.310Z,0.39
2023-03-11T06:20:07.704Z,0.46
2023-03-11T06:20:39.100Z,0.37
2023-03-11T06:21:10.555Z,0.56
2023-03-11T06:21:41.972Z,0.61
2023-03-11T06:22:13.388Z,0.48
2023-03-11T06:22:44.801Z,0.54
2023-03-11T06:23:16.228Z,0.43
2023-03-11T06:23:47.632Z,0.46
2023-03-11T06:24:19.028Z,0.62
2023-03-11T06:24:50.466Z,0.50
2023-03-11T06:25:21.895Z,0.38
2023-03-11T06:25:53.284Z,0.37
2023-03-11T06:26:24.696Z,0.51
2023-03-11T06:26:56.193Z,0.66
2023-03-11T06:27:27.587Z,0.48
2023-03-11T06:27:58.996Z,0.66
2023-03-11T06:28:30.415Z,0.69
2023-03-11T06:29:01.832Z,0.60
2023-03-11T06:29:33.235Z,0.43
2023-03-11T06:30:04.693Z,0.44
2023-03-11T06:30:36.096Z,0.42
2023-03-11T06:31:07.519Z,0.36
2023-03-11T06:31:38.933Z,0.29
2023-03-11T06:32:10.348Z,0.39
2023-03-11T06:32:41.824Z,0.32
2023-03-11T06:33:13.248Z,0.57
2023-03-11T06:33:44.644Z,0.64
2023-03-11T06:34:16.067Z,0.56
2023-03-11T06:34:47.485Z,0.52
2023-03-11T06:35:19.391Z,0.58
2023-03-11T06:35:50.926Z,0.55
2023-03-11T06:36:22.372Z,0.55
2023-03-11T06:36:53.783Z,0.52
2023-03-11T06:37:25.193Z,0.52
2023-03-11T06:37:56.617Z,0.41
2023-03-11T06:38:28.031Z,0.44
2023-03-11T06:38:59.499Z,0.34
2023-03-11T06:39:30.894Z,0.47
2023-03-11T06:40:02.314Z,0.40
2023-03-11T06:40:33.821Z,0.55
2023-03-11T06:41:05.251Z,0.47
2023-03-11T06:41:36.661Z,0.47
2023-03-11T06:42:08.059Z,0.65
2023-03-11T06:42:39.450Z,0.53
2023-03-11T06:43:10.839Z,0.41
2023-03-11T06:43:42.242Z,0.31
2023-03-11T06:44:13.689Z,0.88
2023-03-11T06:44:45.097Z,0.39
2023-03-11T06:45:17.110Z,0.53
2023-03-11T06:45:49.847Z,0.61
2023-03-11T06:46:21.605Z,0.47
2023-03-11T06:46:53.083Z,0.60
2023-03-11T06:47:24.502Z,0.40
2023-03-11T06:47:55.917Z,0.63
2023-03-11T06:48:27.334Z,0.62
2023-03-11T06:48:58.777Z,0.58
2023-03-11T06:49:30.196Z,0.34
2023-03-11T06:50:01.590Z,0.36
2023-03-11T06:50:33.017Z,0.50
2023-03-11T06:51:04.433Z,0.66
2023-03-11T06:51:35.847Z,0.71
2023-03-11T06:52:07.277Z,0.49
2023-03-11T06:52:38.700Z,0.65
2023-03-11T06:53:10.105Z,0.40
2023-03-11T06:53:41.528Z,0.41
2023-03-11T06:54:12.979Z,0.59
2023-03-11T06:54:44.365Z,0.61
2023-03-11T06:55:15.781Z,0.51
2023-03-11T06:55:47.175Z,0.56
2023-03-11T06:56:18.576Z,0.50
2023-03-11T06:56:50.028Z,0.73
2023-03-11T06:57:21.778Z,0.60
2023-03-11T06:57:53.202Z,0.47
2023-03-11T06:58:24.619Z,0.49